Airfield :
LOGIN :

Register | Disclaimer

   EN    FR    IT 

 










Legend :    VFR   Marginal VFR   IFR   Intensive IFR   Very Intensive IFR
Visi :
Ceiling :
>= 8 km
>= 3000ft
5 to 8 km
1000 to 3000 ft
1500m to 5 km
500 to 1000 ft
800 to 1500m
200 to 500 ft
< 800m
< 200 ft
Symbols :   Thunderstorms  Fog  Heavy snow  Heavy precipitations  Wind > 20 kt
SIGMETs :     Misc.  Thunderstorms  Icing  Turbulence  Mountain Waves  Volcanic Ashes






- Airport Elevation : 505 ft
- IATA code : SXB


LFST - Strasbourg

CURRENT METAR :
  • 120030Z AUTO 18004KT 150V210 9999 FEW033 SCT039 BKN046 05/04 Q1008 TEMPO 3000 BR

EXPIRED METARs :
  • 120000Z AUTO 18004KT 9999 SCT031 BKN040 OVC046 05/05 Q1008 TEMPO 3000 BR
  • 112330Z AUTO 21004KT 180V240 9999 BKN029 BKN037 OVC056 05/04 Q1008 TEMPO 3000 BR
  • 112300Z AUTO 20007KT 9999 FEW036 SCT045 OVC056 05/04 Q1008 NOSIG
  • 112230Z AUTO 21007KT 9999 FEW035 BKN047 BKN054 05/05 Q1008 NOSIG
  • 112200Z AUTO 20009KT 9999 BKN031 BKN048 BKN086 06/04 Q1008 NOSIG
  • 112130Z AUTO 19008KT 9999 -RA SCT027 BKN033 BKN056 06/04 Q1007 NOSIG

TAF TAF LFST
Valid from the 12 at 00:00 until the 13 at 00:00 UTC


112300Z 1200/1224 20007KT 9999 BKN040
PROB30
TEMPO 1201/1207 3000 BR
TEMPO 1210/1222 -SHRA FEW025TCU



MET'MAP, your aeronautical weather chart ! - Copyright ORBIFLY December 2007 - Disclaimer

ORBIFLY MET'MAP TEAM :

Programming & Development : Alexandra Zaïnal
Concept & Development : Baudouin d'Aumeries
Co-Development & Prog : Marc-Olivier Méhu
Technical & hardware support : Manuel Goepfert

Contact : metmap@orbifly.com




SOURCES & CREDITS :

   NOAA